sensor_id;sensor_type;location;lat;lon;timestamp;P1;durP1;ratioP1;P2;durP2;ratioP2
21505;SDS011;10914;48.886;9.394;2023-08-30T00:01:03;66.20;;;62.13;;
21505;SDS011;10914;48.886;9.394;2023-08-30T00:03:28;52.00;;;48.90;;
21505;SDS011;10914;48.886;9.394;2023-08-30T00:05:53;39.80;;;37.30;;
21505;SDS011;10914;48.886;9.394;2023-08-30T00:08:18;42.37;;;39.20;;
21505;SDS011;10914;48.886;9.394;2023-08-30T00:10:44;52.60;;;49.10;;
21505;SDS011;10914;48.886;9.394;2023-08-30T00:13:10;71.68;;;67.32;;
21505;SDS011;10914;48.886;9.394;2023-08-30T00:15:35;107.53;;;101.53;;
21505;SDS011;10914;48.886;9.394;2023-08-30T00:18:00;97.40;;;91.93;;
21505;SDS011;10914;48.886;9.394;2023-08-30T00:20:25;84.68;;;79.72;;
21505;SDS011;10914;48.886;9.394;2023-08-30T00:22:51;71.00;;;66.73;;
21505;SDS011;10914;48.886;9.394;2023-08-30T00:25:16;78.33;;;73.70;;
21505;SDS011;10914;48.886;9.394;2023-08-30T00:27:41;66.40;;;62.22;;
21505;SDS011;10914;48.886;9.394;2023-08-30T00:30:06;92.90;;;87.50;;
21505;SDS011;10914;48.886;9.394;2023-08-30T00:32:34;75.68;;;70.97;;
21505;SDS011;10914;48.886;9.394;2023-08-30T00:34:59;82.97;;;78.17;;
21505;SDS011;10914;48.886;9.394;2023-08-30T00:37:24;72.17;;;67.90;;
21505;SDS011;10914;48.886;9.394;2023-08-30T00:39:49;74.90;;;70.53;;
21505;SDS011;10914;48.886;9.394;2023-08-30T00:42:14;86.00;;;81.38;;
21505;SDS011;10914;48.886;9.394;2023-08-30T00:44:39;67.93;;;63.97;;
21505;SDS011;10914;48.886;9.394;2023-08-30T00:47:05;60.95;;;57.03;;
21505;SDS011;10914;48.886;9.394;2023-08-30T00:49:31;56.83;;;53.27;;
21505;SDS011;10914;48.886;9.394;2023-08-30T00:51:57;48.00;;;44.95;;
21505;SDS011;10914;48.886;9.394;2023-08-30T00:54:22;46.90;;;43.67;;
21505;SDS011;10914;48.886;9.394;2023-08-30T00:56:48;93.57;;;87.97;;
21505;SDS011;10914;48.886;9.394;2023-08-30T00:59:13;67.20;;;62.93;;
21505;SDS011;10914;48.886;9.394;2023-08-30T01:01:39;52.83;;;49.42;;
21505;SDS011;10914;48.886;9.394;2023-08-30T01:04:05;80.05;;;75.45;;
21505;SDS011;10914;48.886;9.394;2023-08-30T01:06:30;48.43;;;45.37;;
21505;SDS011;10914;48.886;9.394;2023-08-30T01:08:55;46.10;;;43.15;;
21505;SDS011;10914;48.886;9.394;2023-08-30T01:11:40;45.72;;;42.50;;
21505;SDS011;10914;48.886;9.394;2023-08-30T01:14:09;45.35;;;42.38;;
21505;SDS011;10914;48.886;9.394;2023-08-30T01:16:35;93.38;;;88.13;;
21505;SDS011;10914;48.886;9.394;2023-08-30T01:19:03;105.85;;;99.78;;
21505;SDS011;10914;48.886;9.394;2023-08-30T01:21:32;48.90;;;45.45;;
21505;SDS011;10914;48.886;9.394;2023-08-30T01:24:03;57.00;;;53.05;;
21505;SDS011;10914;48.886;9.394;2023-08-30T01:28:55;63.70;;;59.78;;
21505;SDS011;10914;48.886;9.394;2023-08-30T01:31:21;51.75;;;47.95;;
21505;SDS011;10914;48.886;9.394;2023-08-30T01:33:47;46.17;;;42.97;;
21505;SDS011;10914;48.886;9.394;2023-08-30T01:36:13;53.47;;;49.80;;
21505;SDS011;10914;48.886;9.394;2023-08-30T01:38:39;39.25;;;36.45;;
21505;SDS011;10914;48.886;9.394;2023-08-30T01:41:05;39.55;;;36.95;;
21505;SDS011;10914;48.886;9.394;2023-08-30T01:43:30;43.10;;;39.83;;
21505;SDS011;10914;48.886;9.394;2023-08-30T01:45:56;40.45;;;37.75;;
21505;SDS011;10914;48.886;9.394;2023-08-30T01:48:22;46.05;;;42.78;;
21505;SDS011;10914;48.886;9.394;2023-08-30T01:50:47;40.10;;;37.45;;
21505;SDS011;10914;48.886;9.394;2023-08-30T01:53:13;46.05;;;42.78;;
21505;SDS011;10914;48.886;9.394;2023-08-30T01:55:39;51.05;;;47.30;;
21505;SDS011;10914;48.886;9.394;2023-08-30T01:58:06;38.78;;;35.97;;
21505;SDS011;10914;48.886;9.394;2023-08-30T02:00:31;50.97;;;47.40;;
21505;SDS011;10914;48.886;9.394;2023-08-30T02:02:56;41.55;;;38.22;;
21505;SDS011;10914;48.886;9.394;2023-08-30T02:05:22;49.17;;;45.28;;
21505;SDS011;10914;48.886;9.394;2023-08-30T02:10:28;48.58;;;44.80;;
21505;SDS011;10914;48.886;9.394;2023-08-30T02:12:55;44.15;;;40.65;;
21505;SDS011;10914;48.886;9.394;2023-08-30T02:15:21;41.88;;;38.97;;
21505;SDS011;10914;48.886;9.394;2023-08-30T02:17:46;44.50;;;41.33;;
21505;SDS011;10914;48.886;9.394;2023-08-30T02:20:13;58.15;;;54.17;;
21505;SDS011;10914;48.886;9.394;2023-08-30T02:22:38;55.38;;;51.78;;
21505;SDS011;10914;48.886;9.394;2023-08-30T02:25:03;93.90;;;88.83;;
21505;SDS011;10914;48.886;9.394;2023-08-30T02:27:30;86.53;;;81.53;;
21505;SDS011;10914;48.886;9.394;2023-08-30T02:29:55;92.10;;;87.03;;
21505;SDS011;10914;48.886;9.394;2023-08-30T02:32:20;63.33;;;59.47;;
21505;SDS011;10914;48.886;9.394;2023-08-30T02:34:49;46.50;;;43.35;;
21505;SDS011;10914;48.886;9.394;2023-08-30T02:37:14;58.38;;;54.22;;
21505;SDS011;10914;48.886;9.394;2023-08-30T02:39:40;80.57;;;75.97;;
21505;SDS011;10914;48.886;9.394;2023-08-30T02:42:05;51.47;;;47.95;;
21505;SDS011;10914;48.886;9.394;2023-08-30T02:44:30;54.73;;;50.87;;
21505;SDS011;10914;48.886;9.394;2023-08-30T02:46:55;82.33;;;77.23;;
21505;SDS011;10914;48.886;9.394;2023-08-30T02:49:20;63.88;;;59.78;;
21505;SDS011;10914;48.886;9.394;2023-08-30T02:51:45;91.83;;;86.27;;
21505;SDS011;10914;48.886;9.394;2023-08-30T02:54:11;48.23;;;44.67;;
21505;SDS011;10914;48.886;9.394;2023-08-30T02:56:38;46.15;;;42.70;;
21505;SDS011;10914;48.886;9.394;2023-08-30T02:59:03;58.13;;;53.90;;
21505;SDS011;10914;48.886;9.394;2023-08-30T03:01:28;52.22;;;48.55;;
21505;SDS011;10914;48.886;9.394;2023-08-30T03:03:53;59.53;;;55.33;;
21505;SDS011;10914;48.886;9.394;2023-08-30T03:06:19;56.00;;;52.25;;
21505;SDS011;10914;48.886;9.394;2023-08-30T03:08:44;49.60;;;46.03;;
21505;SDS011;10914;48.886;9.394;2023-08-30T03:11:10;47.83;;;44.20;;
21505;SDS011;10914;48.886;9.394;2023-08-30T03:13:35;61.45;;;57.13;;
21505;SDS011;10914;48.886;9.394;2023-08-30T03:16:02;48.28;;;45.08;;
21505;SDS011;10914;48.886;9.394;2023-08-30T03:18:27;43.87;;;40.70;;
21505;SDS011;10914;48.886;9.394;2023-08-30T03:21:01;47.13;;;43.87;;
21505;SDS011;10914;48.886;9.394;2023-08-30T03:23:27;50.28;;;46.97;;
21505;SDS011;10914;48.886;9.394;2023-08-30T03:25:52;71.97;;;67.35;;
21505;SDS011;10914;48.886;9.394;2023-08-30T03:28:17;76.77;;;72.07;;
21505;SDS011;10914;48.886;9.394;2023-08-30T03:30:42;79.80;;;74.82;;
21505;SDS011;10914;48.886;9.394;2023-08-30T03:33:08;52.78;;;48.88;;
21505;SDS011;10914;48.886;9.394;2023-08-30T03:35:33;53.70;;;49.67;;
21505;SDS011;10914;48.886;9.394;2023-08-30T03:37:59;78.20;;;73.57;;
21505;SDS011;10914;48.886;9.394;2023-08-30T03:40:24;63.13;;;59.00;;
21505;SDS011;10914;48.886;9.394;2023-08-30T03:42:49;54.28;;;50.70;;
21505;SDS011;10914;48.886;9.394;2023-08-30T03:45:14;58.45;;;54.40;;
21505;SDS011;10914;48.886;9.394;2023-08-30T03:47:39;57.37;;;53.70;;
21505;SDS011;10914;48.886;9.394;2023-08-30T03:50:05;56.10;;;52.07;;
21505;SDS011;10914;48.886;9.394;2023-08-30T03:52:30;54.13;;;50.47;;
21505;SDS011;10914;48.886;9.394;2023-08-30T03:54:55;109.68;;;103.38;;
21505;SDS011;10914;48.886;9.394;2023-08-30T03:57:21;106.23;;;99.60;;
21505;SDS011;10914;48.886;9.394;2023-08-30T03:59:46;68.53;;;64.30;;
21505;SDS011;10914;48.886;9.394;2023-08-30T04:02:11;65.93;;;61.88;;
21505;SDS011;10914;48.886;9.394;2023-08-30T04:04:36;88.57;;;83.50;;
21505;SDS011;10914;48.886;9.394;2023-08-30T04:07:01;55.37;;;51.67;;
21505;SDS011;10914;48.886;9.394;2023-08-30T04:09:27;48.38;;;45.00;;
21505;SDS011;10914;48.886;9.394;2023-08-30T04:11:52;67.80;;;62.88;;
21505;SDS011;10914;48.886;9.394;2023-08-30T04:14:17;46.97;;;43.70;;
21505;SDS011;10914;48.886;9.394;2023-08-30T04:16:42;44.92;;;41.83;;
21505;SDS011;10914;48.886;9.394;2023-08-30T04:19:08;63.22;;;59.13;;
21505;SDS011;10914;48.886;9.394;2023-08-30T04:21:33;53.70;;;50.27;;
21505;SDS011;10914;48.886;9.394;2023-08-30T04:23:58;80.82;;;76.32;;
21505;SDS011;10914;48.886;9.394;2023-08-30T04:26:23;50.70;;;47.58;;
21505;SDS011;10914;48.886;9.394;2023-08-30T04:28:48;50.80;;;47.40;;
21505;SDS011;10914;48.886;9.394;2023-08-30T04:31:13;53.00;;;49.78;;
21505;SDS011;10914;48.886;9.394;2023-08-30T04:33:39;75.20;;;70.67;;
21505;SDS011;10914;48.886;9.394;2023-08-30T04:36:04;70.82;;;66.32;;
21505;SDS011;10914;48.886;9.394;2023-08-30T04:38:29;48.08;;;44.88;;
21505;SDS011;10914;48.886;9.394;2023-08-30T04:40:58;62.63;;;59.03;;
21505;SDS011;10914;48.886;9.394;2023-08-30T04:43:24;51.50;;;47.92;;
21505;SDS011;10914;48.886;9.394;2023-08-30T04:45:49;78.83;;;74.30;;
21505;SDS011;10914;48.886;9.394;2023-08-30T04:48:14;50.70;;;47.38;;
21505;SDS011;10914;48.886;9.394;2023-08-30T04:50:39;48.30;;;45.17;;
21505;SDS011;10914;48.886;9.394;2023-08-30T04:53:05;49.17;;;45.90;;
21505;SDS011;10914;48.886;9.394;2023-08-30T04:55:30;46.47;;;43.47;;
21505;SDS011;10914;48.886;9.394;2023-08-30T04:57:55;47.13;;;44.03;;
21505;SDS011;10914;48.886;9.394;2023-08-30T05:00:20;53.15;;;49.55;;
21505;SDS011;10914;48.886;9.394;2023-08-30T05:02:46;64.55;;;60.72;;
21505;SDS011;10914;48.886;9.394;2023-08-30T05:05:11;60.05;;;56.38;;
21505;SDS011;10914;48.886;9.394;2023-08-30T05:07:37;54.80;;;51.03;;
21505;SDS011;10914;48.886;9.394;2023-08-30T05:10:02;96.03;;;90.73;;
21505;SDS011;10914;48.886;9.394;2023-08-30T05:12:30;94.43;;;89.25;;
21505;SDS011;10914;48.886;9.394;2023-08-30T05:14:56;85.32;;;80.28;;
21505;SDS011;10914;48.886;9.394;2023-08-30T05:17:21;125.20;;;118.07;;
21505;SDS011;10914;48.886;9.394;2023-08-30T05:19:46;90.75;;;85.75;;
21505;SDS011;10914;48.886;9.394;2023-08-30T05:22:11;118.60;;;112.13;;
21505;SDS011;10914;48.886;9.394;2023-08-30T05:24:37;149.80;;;141.70;;
21505;SDS011;10914;48.886;9.394;2023-08-30T05:27:02;73.60;;;69.40;;
21505;SDS011;10914;48.886;9.394;2023-08-30T05:29:27;137.52;;;130.32;;
21505;SDS011;10914;48.886;9.394;2023-08-30T05:31:52;132.77;;;125.23;;
21505;SDS011;10914;48.886;9.394;2023-08-30T05:34:18;112.85;;;106.05;;
21505;SDS011;10914;48.886;9.394;2023-08-30T05:36:43;62.83;;;58.27;;
21505;SDS011;10914;48.886;9.394;2023-08-30T05:39:08;73.00;;;68.47;;
21505;SDS011;10914;48.886;9.394;2023-08-30T05:41:33;99.83;;;94.20;;
21505;SDS011;10914;48.886;9.394;2023-08-30T05:43:58;91.13;;;85.97;;
21505;SDS011;10914;48.886;9.394;2023-08-30T05:46:24;94.23;;;89.03;;
21505;SDS011;10914;48.886;9.394;2023-08-30T05:48:49;107.70;;;101.80;;
21505;SDS011;10914;48.886;9.394;2023-08-30T05:51:14;52.25;;;48.75;;
21505;SDS011;10914;48.886;9.394;2023-08-30T05:53:39;41.67;;;38.67;;
21505;SDS011;10914;48.886;9.394;2023-08-30T05:56:05;40.63;;;37.83;;
21505;SDS011;10914;48.886;9.394;2023-08-30T05:58:30;35.80;;;33.30;;
21505;SDS011;10914;48.886;9.394;2023-08-30T06:00:56;40.30;;;37.07;;
21505;SDS011;10914;48.886;9.394;2023-08-30T06:03:21;45.00;;;41.70;;
21505;SDS011;10914;48.886;9.394;2023-08-30T06:05:46;39.77;;;36.97;;
21505;SDS011;10914;48.886;9.394;2023-08-30T06:08:13;44.92;;;41.78;;
21505;SDS011;10914;48.886;9.394;2023-08-30T06:10:38;37.90;;;35.10;;
21505;SDS011;10914;48.886;9.394;2023-08-30T06:13:04;37.93;;;35.27;;
21505;SDS011;10914;48.886;9.394;2023-08-30T06:15:29;42.20;;;39.20;;
21505;SDS011;10914;48.886;9.394;2023-08-30T06:17:54;44.27;;;40.97;;
21505;SDS011;10914;48.886;9.394;2023-08-30T06:20:19;44.65;;;41.47;;
21505;SDS011;10914;48.886;9.394;2023-08-30T06:22:44;50.05;;;46.55;;
21505;SDS011;10914;48.886;9.394;2023-08-30T06:25:10;62.92;;;59.05;;
21505;SDS011;10914;48.886;9.394;2023-08-30T06:27:40;42.45;;;39.83;;
21505;SDS011;10914;48.886;9.394;2023-08-30T06:30:06;44.22;;;41.22;;
21505;SDS011;10914;48.886;9.394;2023-08-30T06:32:31;48.28;;;45.00;;
21505;SDS011;10914;48.886;9.394;2023-08-30T06:34:56;44.50;;;41.20;;
21505;SDS011;10914;48.886;9.394;2023-08-30T06:37:21;46.72;;;43.63;;
21505;SDS011;10914;48.886;9.394;2023-08-30T06:39:47;46.92;;;43.90;;
21505;SDS011;10914;48.886;9.394;2023-08-30T06:42:12;56.47;;;53.17;;
21505;SDS011;10914;48.886;9.394;2023-08-30T06:44:37;55.03;;;51.67;;
21505;SDS011;10914;48.886;9.394;2023-08-30T06:47:02;57.47;;;53.92;;
21505;SDS011;10914;48.886;9.394;2023-08-30T06:49:28;56.05;;;52.70;;
21505;SDS011;10914;48.886;9.394;2023-08-30T06:51:53;61.17;;;57.55;;
21505;SDS011;10914;48.886;9.394;2023-08-30T06:54:18;48.92;;;45.88;;
21505;SDS011;10914;48.886;9.394;2023-08-30T06:56:56;42.27;;;39.53;;
21505;SDS011;10914;48.886;9.394;2023-08-30T06:59:22;37.30;;;34.90;;
21505;SDS011;10914;48.886;9.394;2023-08-30T07:01:47;39.50;;;36.87;;
21505;SDS011;10914;48.886;9.394;2023-08-30T07:04:12;40.40;;;38.08;;
21505;SDS011;10914;48.886;9.394;2023-08-30T07:06:37;41.97;;;39.47;;
21505;SDS011;10914;48.886;9.394;2023-08-30T07:09:02;41.67;;;39.17;;
21505;SDS011;10914;48.886;9.394;2023-08-30T07:11:29;37.38;;;35.08;;
21505;SDS011;10914;48.886;9.394;2023-08-30T07:13:55;34.53;;;32.05;;
21505;SDS011;10914;48.886;9.394;2023-08-30T07:16:20;34.13;;;31.85;;
21505;SDS011;10914;48.886;9.394;2023-08-30T07:18:45;35.60;;;33.17;;
21505;SDS011;10914;48.886;9.394;2023-08-30T07:21:11;34.20;;;32.00;;
21505;SDS011;10914;48.886;9.394;2023-08-30T07:23:36;35.72;;;33.47;;
21505;SDS011;10914;48.886;9.394;2023-08-30T07:26:01;32.80;;;30.83;;
21505;SDS011;10914;48.886;9.394;2023-08-30T07:28:26;34.73;;;32.57;;
21505;SDS011;10914;48.886;9.394;2023-08-30T07:30:51;35.30;;;33.10;;
21505;SDS011;10914;48.886;9.394;2023-08-30T07:33:16;32.70;;;30.70;;
21505;SDS011;10914;48.886;9.394;2023-08-30T07:35:42;33.77;;;31.67;;
21505;SDS011;10914;48.886;9.394;2023-08-30T07:38:07;36.20;;;34.17;;
21505;SDS011;10914;48.886;9.394;2023-08-30T07:40:32;33.87;;;31.77;;
21505;SDS011;10914;48.886;9.394;2023-08-30T07:42:57;38.05;;;35.88;;
21505;SDS011;10914;48.886;9.394;2023-08-30T07:45:22;36.67;;;34.57;;
21505;SDS011;10914;48.886;9.394;2023-08-30T07:47:47;33.05;;;31.25;;
21505;SDS011;10914;48.886;9.394;2023-08-30T07:50:13;33.83;;;31.73;;
21505;SDS011;10914;48.886;9.394;2023-08-30T07:52:38;31.63;;;29.73;;
21505;SDS011;10914;48.886;9.394;2023-08-30T07:55:03;30.93;;;29.07;;
21505;SDS011;10914;48.886;9.394;2023-08-30T07:57:28;29.20;;;27.40;;
21505;SDS011;10914;48.886;9.394;2023-08-30T07:59:53;27.13;;;25.53;;
21505;SDS011;10914;48.886;9.394;2023-08-30T08:02:19;27.77;;;26.17;;
21505;SDS011;10914;48.886;9.394;2023-08-30T08:04:44;26.97;;;25.47;;
21505;SDS011;10914;48.886;9.394;2023-08-30T08:07:09;27.13;;;25.43;;
21505;SDS011;10914;48.886;9.394;2023-08-30T08:09:34;26.90;;;25.40;;
21505;SDS011;10914;48.886;9.394;2023-08-30T08:11:59;26.53;;;24.90;;
21505;SDS011;10914;48.886;9.394;2023-08-30T08:14:25;28.17;;;26.38;;
21505;SDS011;10914;48.886;9.394;2023-08-30T08:16:50;29.60;;;27.80;;
21505;SDS011;10914;48.886;9.394;2023-08-30T08:19:15;26.13;;;24.70;;
21505;SDS011;10914;48.886;9.394;2023-08-30T08:21:41;26.20;;;24.50;;
21505;SDS011;10914;48.886;9.394;2023-08-30T08:24:06;25.53;;;23.97;;
21505;SDS011;10914;48.886;9.394;2023-08-30T08:26:31;25.48;;;24.08;;
21505;SDS011;10914;48.886;9.394;2023-08-30T08:28:56;27.00;;;25.50;;
21505;SDS011;10914;48.886;9.394;2023-08-30T08:31:21;25.93;;;24.17;;
21505;SDS011;10914;48.886;9.394;2023-08-30T08:33:49;26.98;;;25.40;;
21505;SDS011;10914;48.886;9.394;2023-08-30T08:36:14;24.38;;;23.05;;
21505;SDS011;10914;48.886;9.394;2023-08-30T08:38:40;27.60;;;26.10;;
21505;SDS011;10914;48.886;9.394;2023-08-30T08:41:05;28.40;;;26.55;;
21505;SDS011;10914;48.886;9.394;2023-08-30T08:43:32;28.17;;;26.58;;
21505;SDS011;10914;48.886;9.394;2023-08-30T08:45:59;27.23;;;25.63;;
21505;SDS011;10914;48.886;9.394;2023-08-30T08:48:25;26.27;;;24.83;;
21505;SDS011;10914;48.886;9.394;2023-08-30T08:50:50;26.25;;;24.70;;
21505;SDS011;10914;48.886;9.394;2023-08-30T08:53:16;25.65;;;24.15;;
21505;SDS011;10914;48.886;9.394;2023-08-30T08:55:41;26.83;;;25.40;;
21505;SDS011;10914;48.886;9.394;2023-08-30T08:58:08;27.77;;;26.27;;
21505;SDS011;10914;48.886;9.394;2023-08-30T09:00:33;29.77;;;28.00;;
21505;SDS011;10914;48.886;9.394;2023-08-30T09:02:58;27.23;;;25.63;;
21505;SDS011;10914;48.886;9.394;2023-08-30T09:05:25;27.05;;;25.52;;
21505;SDS011;10914;48.886;9.394;2023-08-30T09:07:50;25.73;;;24.30;;
21505;SDS011;10914;48.886;9.394;2023-08-30T09:10:18;25.52;;;24.02;;
21505;SDS011;10914;48.886;9.394;2023-08-30T09:12:43;26.20;;;24.58;;
21505;SDS011;10914;48.886;9.394;2023-08-30T09:15:09;25.67;;;24.27;;
21505;SDS011;10914;48.886;9.394;2023-08-30T09:17:37;26.48;;;25.08;;
21505;SDS011;10914;48.886;9.394;2023-08-30T09:20:06;26.85;;;25.23;;
21505;SDS011;10914;48.886;9.394;2023-08-30T09:22:35;25.58;;;23.98;;
21505;SDS011;10914;48.886;9.394;2023-08-30T09:25:00;25.88;;;24.45;;
21505;SDS011;10914;48.886;9.394;2023-08-30T09:27:31;26.25;;;24.77;;
21505;SDS011;10914;48.886;9.394;2023-08-30T09:29:57;25.88;;;24.48;;
21505;SDS011;10914;48.886;9.394;2023-08-30T09:32:23;25.83;;;24.27;;
21505;SDS011;10914;48.886;9.394;2023-08-30T09:34:48;23.40;;;22.02;;
21505;SDS011;10914;48.886;9.394;2023-08-30T09:37:20;21.90;;;20.70;;
21505;SDS011;10914;48.886;9.394;2023-08-30T09:39:51;23.52;;;22.23;;
21505;SDS011;10914;48.886;9.394;2023-08-30T09:42:17;22.73;;;21.45;;
21505;SDS011;10914;48.886;9.394;2023-08-30T09:44:43;22.20;;;21.00;;
21505;SDS011;10914;48.886;9.394;2023-08-30T09:47:08;22.58;;;21.23;;
21505;SDS011;10914;48.886;9.394;2023-08-30T09:49:35;23.20;;;22.00;;
21505;SDS011;10914;48.886;9.394;2023-08-30T09:52:02;22.02;;;20.70;;
21505;SDS011;10914;48.886;9.394;2023-08-30T09:54:31;25.10;;;23.77;;
21505;SDS011;10914;48.886;9.394;2023-08-30T09:56:57;23.95;;;22.50;;
21505;SDS011;10914;48.886;9.394;2023-08-30T09:59:24;26.10;;;24.80;;
21505;SDS011;10914;48.886;9.394;2023-08-30T10:01:50;22.90;;;21.70;;
21505;SDS011;10914;48.886;9.394;2023-08-30T10:04:15;21.83;;;20.73;;
21505;SDS011;10914;48.886;9.394;2023-08-30T10:06:40;24.83;;;23.52;;
21505;SDS011;10914;48.886;9.394;2023-08-30T10:09:07;23.02;;;21.83;;
21505;SDS011;10914;48.886;9.394;2023-08-30T10:11:33;22.45;;;21.25;;
21505;SDS011;10914;48.886;9.394;2023-08-30T10:13:59;21.00;;;19.90;;
21505;SDS011;10914;48.886;9.394;2023-08-30T10:16:25;21.40;;;20.30;;
21505;SDS011;10914;48.886;9.394;2023-08-30T10:18:52;21.30;;;20.20;;
21505;SDS011;10914;48.886;9.394;2023-08-30T10:21:19;21.48;;;20.38;;
21505;SDS011;10914;48.886;9.394;2023-08-30T10:23:45;21.92;;;20.83;;
21505;SDS011;10914;48.886;9.394;2023-08-30T10:26:12;21.10;;;20.00;;
21505;SDS011;10914;48.886;9.394;2023-08-30T10:28:37;24.20;;;22.80;;
21505;SDS011;10914;48.886;9.394;2023-08-30T10:31:03;25.75;;;24.45;;
21505;SDS011;10914;48.886;9.394;2023-08-30T10:33:29;22.95;;;21.85;;
21505;SDS011;10914;48.886;9.394;2023-08-30T10:36:02;24.70;;;23.40;;
21505;SDS011;10914;48.886;9.394;2023-08-30T10:38:28;21.15;;;20.05;;
21505;SDS011;10914;48.886;9.394;2023-08-30T10:40:54;21.70;;;20.60;;
21505;SDS011;10914;48.886;9.394;2023-08-30T10:43:28;21.52;;;20.42;;
21505;SDS011;10914;48.886;9.394;2023-08-30T10:46:03;21.30;;;20.20;;
21505;SDS011;10914;48.886;9.394;2023-08-30T10:48:38;21.13;;;20.02;;
21505;SDS011;10914;48.886;9.394;2023-08-30T10:51:04;21.30;;;20.20;;
21505;SDS011;10914;48.886;9.394;2023-08-30T10:53:30;22.58;;;21.30;;
21505;SDS011;10914;48.886;9.394;2023-08-30T10:56:10;21.67;;;20.58;;
21505;SDS011;10914;48.886;9.394;2023-08-30T10:58:40;20.83;;;19.63;;
21505;SDS011;10914;48.886;9.394;2023-08-30T11:01:06;21.30;;;20.30;;
21505;SDS011;10914;48.886;9.394;2023-08-30T11:03:31;21.00;;;20.00;;
21505;SDS011;10914;48.886;9.394;2023-08-30T11:05:56;21.90;;;20.65;;
21505;SDS011;10914;48.886;9.394;2023-08-30T11:08:26;21.30;;;20.20;;
21505;SDS011;10914;48.886;9.394;2023-08-30T11:10:59;20.00;;;19.00;;
21505;SDS011;10914;48.886;9.394;2023-08-30T11:13:26;19.83;;;18.83;;
21505;SDS011;10914;48.886;9.394;2023-08-30T11:15:51;18.75;;;17.85;;
21505;SDS011;10914;48.886;9.394;2023-08-30T11:18:18;20.17;;;19.00;;
21505;SDS011;10914;48.886;9.394;2023-08-30T11:20:44;20.38;;;19.38;;
21505;SDS011;10914;48.886;9.394;2023-08-30T11:23:09;19.85;;;18.85;;
21505;SDS011;10914;48.886;9.394;2023-08-30T11:25:34;19.73;;;18.73;;
21505;SDS011;10914;48.886;9.394;2023-08-30T11:28:03;20.20;;;19.20;;
21505;SDS011;10914;48.886;9.394;2023-08-30T11:30:28;18.65;;;17.65;;
21505;SDS011;10914;48.886;9.394;2023-08-30T11:32:53;21.40;;;20.40;;
21505;SDS011;10914;48.886;9.394;2023-08-30T11:35:20;18.73;;;17.83;;
21505;SDS011;10914;48.886;9.394;2023-08-30T11:37:46;18.92;;;18.02;;
21505;SDS011;10914;48.886;9.394;2023-08-30T11:40:11;19.63;;;18.53;;
21505;SDS011;10914;48.886;9.394;2023-08-30T11:42:37;18.27;;;17.38;;
21505;SDS011;10914;48.886;9.394;2023-08-30T11:45:02;16.90;;;16.10;;
21505;SDS011;10914;48.886;9.394;2023-08-30T11:47:29;16.85;;;16.05;;
21505;SDS011;10914;48.886;9.394;2023-08-30T11:49:54;18.23;;;17.33;;
21505;SDS011;10914;48.886;9.394;2023-08-30T11:52:20;18.02;;;17.13;;
21505;SDS011;10914;48.886;9.394;2023-08-30T11:54:47;17.52;;;16.63;;
21505;SDS011;10914;48.886;9.394;2023-08-30T11:57:12;17.20;;;16.40;;
21505;SDS011;10914;48.886;9.394;2023-08-30T11:59:37;17.17;;;16.27;;
21505;SDS011;10914;48.886;9.394;2023-08-30T12:02:03;16.70;;;15.87;;
21505;SDS011;10914;48.886;9.394;2023-08-30T12:04:28;17.67;;;16.77;;
21505;SDS011;10914;48.886;9.394;2023-08-30T12:06:53;17.95;;;16.95;;
21505;SDS011;10914;48.886;9.394;2023-08-30T12:09:19;18.87;;;17.90;;
21505;SDS011;10914;48.886;9.394;2023-08-30T12:11:46;18.83;;;17.92;;
21505;SDS011;10914;48.886;9.394;2023-08-30T12:14:11;18.38;;;17.48;;
21505;SDS011;10914;48.886;9.394;2023-08-30T12:16:37;18.57;;;17.67;;
21505;SDS011;10914;48.886;9.394;2023-08-30T12:19:11;19.10;;;18.10;;
21505;SDS011;10914;48.886;9.394;2023-08-30T12:21:41;18.83;;;17.90;;
21505;SDS011;10914;48.886;9.394;2023-08-30T12:24:06;18.52;;;17.63;;
21505;SDS011;10914;48.886;9.394;2023-08-30T12:26:32;20.33;;;19.23;;
21505;SDS011;10914;48.886;9.394;2023-08-30T12:29:03;20.30;;;19.20;;
21505;SDS011;10914;48.886;9.394;2023-08-30T12:31:28;25.83;;;24.55;;
21505;SDS011;10914;48.886;9.394;2023-08-30T12:33:53;21.97;;;20.80;;
21505;SDS011;10914;48.886;9.394;2023-08-30T12:36:19;23.40;;;21.98;;
21505;SDS011;10914;48.886;9.394;2023-08-30T12:38:44;23.27;;;21.97;;
21505;SDS011;10914;48.886;9.394;2023-08-30T12:41:09;22.90;;;21.60;;
21505;SDS011;10914;48.886;9.394;2023-08-30T12:43:34;25.27;;;23.97;;
21505;SDS011;10914;48.886;9.394;2023-08-30T12:45:59;23.97;;;22.57;;
21505;SDS011;10914;48.886;9.394;2023-08-30T12:48:25;25.25;;;23.65;;
21505;SDS011;10914;48.886;9.394;2023-08-30T12:50:50;27.23;;;25.53;;
21505;SDS011;10914;48.886;9.394;2023-08-30T12:53:15;24.10;;;22.80;;
21505;SDS011;10914;48.886;9.394;2023-08-30T12:55:43;23.25;;;22.05;;
21505;SDS011;10914;48.886;9.394;2023-08-30T12:58:08;23.10;;;21.80;;
21505;SDS011;10914;48.886;9.394;2023-08-30T13:00:34;23.73;;;22.33;;
21505;SDS011;10914;48.886;9.394;2023-08-30T13:02:59;25.50;;;24.10;;
21505;SDS011;10914;48.886;9.394;2023-08-30T13:05:25;24.83;;;23.33;;
21505;SDS011;10914;48.886;9.394;2023-08-30T13:07:50;25.25;;;23.85;;
21505;SDS011;10914;48.886;9.394;2023-08-30T13:10:15;23.17;;;21.92;;
21505;SDS011;10914;48.886;9.394;2023-08-30T13:12:41;23.13;;;21.92;;
21505;SDS011;10914;48.886;9.394;2023-08-30T13:15:07;22.30;;;21.10;;
21505;SDS011;10914;48.886;9.394;2023-08-30T13:17:32;24.80;;;23.52;;
21505;SDS011;10914;48.886;9.394;2023-08-30T13:19:58;22.98;;;21.67;;
21505;SDS011;10914;48.886;9.394;2023-08-30T13:22:23;22.87;;;21.57;;
21505;SDS011;10914;48.886;9.394;2023-08-30T13:24:48;21.35;;;20.10;;
21505;SDS011;10914;48.886;9.394;2023-08-30T13:27:13;21.13;;;20.02;;
21505;SDS011;10914;48.886;9.394;2023-08-30T13:29:39;20.57;;;19.57;;
21505;SDS011;10914;48.886;9.394;2023-08-30T13:32:04;22.70;;;21.60;;
21505;SDS011;10914;48.886;9.394;2023-08-30T13:34:29;22.77;;;21.60;;
21505;SDS011;10914;48.886;9.394;2023-08-30T13:36:54;22.87;;;21.67;;
21505;SDS011;10914;48.886;9.394;2023-08-30T13:39:19;21.63;;;20.43;;
21505;SDS011;10914;48.886;9.394;2023-08-30T13:41:45;21.52;;;20.30;;
21505;SDS011;10914;48.886;9.394;2023-08-30T13:44:10;19.20;;;18.20;;
21505;SDS011;10914;48.886;9.394;2023-08-30T13:46:35;19.27;;;18.17;;
21505;SDS011;10914;48.886;9.394;2023-08-30T13:49:01;18.10;;;17.20;;
21505;SDS011;10914;48.886;9.394;2023-08-30T13:51:26;18.58;;;17.65;;
21505;SDS011;10914;48.886;9.394;2023-08-30T13:53:52;18.02;;;17.08;;
21505;SDS011;10914;48.886;9.394;2023-08-30T13:56:20;18.92;;;17.73;;
21505;SDS011;10914;48.886;9.394;2023-08-30T13:58:46;18.27;;;17.38;;
21505;SDS011;10914;48.886;9.394;2023-08-30T14:01:11;18.43;;;17.53;;
21505;SDS011;10914;48.886;9.394;2023-08-30T14:03:36;18.60;;;17.70;;
21505;SDS011;10914;48.886;9.394;2023-08-30T14:06:01;19.10;;;18.20;;
21505;SDS011;10914;48.886;9.394;2023-08-30T14:08:27;18.27;;;17.40;;
21505;SDS011;10914;48.886;9.394;2023-08-30T14:10:54;18.20;;;17.30;;
21505;SDS011;10914;48.886;9.394;2023-08-30T14:13:19;18.75;;;17.85;;
21505;SDS011;10914;48.886;9.394;2023-08-30T14:15:44;19.00;;;18.10;;
21505;SDS011;10914;48.886;9.394;2023-08-30T14:18:09;19.50;;;18.53;;